sensor_id;sensor_type;location;lat;lon;timestamp;P1;durP1;ratioP1;P2;durP2;ratioP2
30896;SDS011;64229;52.246;21.054;2024-03-25T00:00:42;19.47;;;8.90;;
30896;SDS011;64229;52.246;21.054;2024-03-25T00:03:07;20.50;;;8.77;;
30896;SDS011;64229;52.246;21.054;2024-03-25T00:05:32;16.77;;;7.83;;
30896;SDS011;64229;52.246;21.054;2024-03-25T00:07:57;16.45;;;8.55;;
30896;SDS011;64229;52.246;21.054;2024-03-25T00:10:23;18.65;;;8.27;;
30896;SDS011;64229;52.246;21.054;2024-03-25T00:12:49;17.90;;;8.65;;
30896;SDS011;64229;52.246;21.054;2024-03-25T00:15:18;16.23;;;8.35;;
30896;SDS011;64229;52.246;21.054;2024-03-25T00:17:45;16.95;;;8.07;;
30896;SDS011;64229;52.246;21.054;2024-03-25T00:20:11;15.38;;;8.20;;
30896;SDS011;64229;52.246;21.054;2024-03-25T00:22:37;18.80;;;9.32;;
30896;SDS011;64229;52.246;21.054;2024-03-25T00:25:03;22.27;;;8.90;;
30896;SDS011;64229;52.246;21.054;2024-03-25T00:27:28;17.65;;;8.73;;
30896;SDS011;64229;52.246;21.054;2024-03-25T00:29:55;22.17;;;9.80;;
30896;SDS011;64229;52.246;21.054;2024-03-25T00:32:20;17.67;;;8.65;;
30896;SDS011;64229;52.246;21.054;2024-03-25T00:34:45;19.08;;;8.80;;
30896;SDS011;64229;52.246;21.054;2024-03-25T00:37:11;18.63;;;9.43;;
30896;SDS011;64229;52.246;21.054;2024-03-25T00:39:36;19.90;;;10.02;;
30896;SDS011;64229;52.246;21.054;2024-03-25T00:42:01;21.83;;;9.68;;
30896;SDS011;64229;52.246;21.054;2024-03-25T00:44:26;22.55;;;9.85;;
30896;SDS011;64229;52.246;21.054;2024-03-25T00:46:52;23.27;;;10.55;;
30896;SDS011;64229;52.246;21.054;2024-03-25T00:49:17;22.52;;;11.07;;
30896;SDS011;64229;52.246;21.054;2024-03-25T00:51:42;26.05;;;10.82;;
30896;SDS011;64229;52.246;21.054;2024-03-25T00:54:08;21.40;;;10.13;;
30896;SDS011;64229;52.246;21.054;2024-03-25T00:56:33;22.10;;;10.50;;
30896;SDS011;64229;52.246;21.054;2024-03-25T00:58:58;23.63;;;9.65;;
30896;SDS011;64229;52.246;21.054;2024-03-25T01:01:27;22.48;;;10.23;;
30896;SDS011;64229;52.246;21.054;2024-03-25T01:03:53;25.00;;;11.00;;
30896;SDS011;64229;52.246;21.054;2024-03-25T01:06:18;23.42;;;10.32;;
30896;SDS011;64229;52.246;21.054;2024-03-25T01:08:43;21.02;;;10.05;;
30896;SDS011;64229;52.246;21.054;2024-03-25T01:11:09;22.15;;;10.73;;
30896;SDS011;64229;52.246;21.054;2024-03-25T01:13:34;23.58;;;10.57;;
30896;SDS011;64229;52.246;21.054;2024-03-25T01:15:59;23.02;;;11.20;;
30896;SDS011;64229;52.246;21.054;2024-03-25T01:18:25;28.53;;;11.43;;
30896;SDS011;64229;52.246;21.054;2024-03-25T01:20:50;26.45;;;11.25;;
30896;SDS011;64229;52.246;21.054;2024-03-25T01:23:15;23.63;;;10.23;;
30896;SDS011;64229;52.246;21.054;2024-03-25T01:25:41;28.67;;;11.20;;
30896;SDS011;64229;52.246;21.054;2024-03-25T01:28:06;24.30;;;10.45;;
30896;SDS011;64229;52.246;21.054;2024-03-25T01:30:31;24.00;;;10.93;;
30896;SDS011;64229;52.246;21.054;2024-03-25T01:33:00;28.02;;;11.43;;
30896;SDS011;64229;52.246;21.054;2024-03-25T01:35:25;25.50;;;12.15;;
30896;SDS011;64229;52.246;21.054;2024-03-25T01:37:50;27.25;;;10.93;;
30896;SDS011;64229;52.246;21.054;2024-03-25T01:40:16;28.60;;;12.27;;
30896;SDS011;64229;52.246;21.054;2024-03-25T01:42:41;24.23;;;10.93;;
30896;SDS011;64229;52.246;21.054;2024-03-25T01:45:06;28.15;;;12.40;;
30896;SDS011;64229;52.246;21.054;2024-03-25T01:47:35;29.10;;;12.32;;
30896;SDS011;64229;52.246;21.054;2024-03-25T01:50:00;27.15;;;11.38;;
30896;SDS011;64229;52.246;21.054;2024-03-25T01:52:28;25.40;;;11.52;;
30896;SDS011;64229;52.246;21.054;2024-03-25T01:54:54;26.42;;;12.45;;
30896;SDS011;64229;52.246;21.054;2024-03-25T01:57:19;27.17;;;12.10;;
30896;SDS011;64229;52.246;21.054;2024-03-25T01:59:45;29.05;;;11.82;;
30896;SDS011;64229;52.246;21.054;2024-03-25T02:02:11;24.33;;;11.75;;
30896;SDS011;64229;52.246;21.054;2024-03-25T02:04:38;25.75;;;12.27;;
30896;SDS011;64229;52.246;21.054;2024-03-25T02:07:05;26.52;;;12.02;;
30896;SDS011;64229;52.246;21.054;2024-03-25T02:09:32;25.75;;;11.63;;
30896;SDS011;64229;52.246;21.054;2024-03-25T02:11:58;26.92;;;12.02;;
30896;SDS011;64229;52.246;21.054;2024-03-25T02:14:24;30.35;;;12.85;;
30896;SDS011;64229;52.246;21.054;2024-03-25T02:16:49;29.48;;;12.13;;
30896;SDS011;64229;52.246;21.054;2024-03-25T02:19:14;25.00;;;11.68;;
30896;SDS011;64229;52.246;21.054;2024-03-25T02:21:40;25.65;;;11.68;;
30896;SDS011;64229;52.246;21.054;2024-03-25T02:24:07;28.08;;;12.35;;
30896;SDS011;64229;52.246;21.054;2024-03-25T02:26:34;27.45;;;12.65;;
30896;SDS011;64229;52.246;21.054;2024-03-25T02:29:00;29.33;;;12.90;;
30896;SDS011;64229;52.246;21.054;2024-03-25T02:31:26;29.88;;;12.27;;
30896;SDS011;64229;52.246;21.054;2024-03-25T02:33:51;27.63;;;12.38;;
30896;SDS011;64229;52.246;21.054;2024-03-25T02:36:16;27.40;;;13.60;;
30896;SDS011;64229;52.246;21.054;2024-03-25T02:38:42;30.55;;;13.13;;
30896;SDS011;64229;52.246;21.054;2024-03-25T02:41:07;30.33;;;13.02;;
30896;SDS011;64229;52.246;21.054;2024-03-25T02:43:33;32.17;;;13.70;;
30896;SDS011;64229;52.246;21.054;2024-03-25T02:45:58;31.27;;;13.27;;
30896;SDS011;64229;52.246;21.054;2024-03-25T02:48:24;27.58;;;13.05;;
30896;SDS011;64229;52.246;21.054;2024-03-25T02:50:49;30.77;;;13.25;;
30896;SDS011;64229;52.246;21.054;2024-03-25T02:53:15;26.38;;;12.65;;
30896;SDS011;64229;52.246;21.054;2024-03-25T02:55:40;26.77;;;12.48;;
30896;SDS011;64229;52.246;21.054;2024-03-25T02:58:06;33.13;;;13.48;;
30896;SDS011;64229;52.246;21.054;2024-03-25T03:00:31;29.92;;;13.13;;
30896;SDS011;64229;52.246;21.054;2024-03-25T03:02:56;31.70;;;12.45;;
30896;SDS011;64229;52.246;21.054;2024-03-25T03:05:22;25.77;;;12.67;;
30896;SDS011;64229;52.246;21.054;2024-03-25T03:07:47;30.55;;;13.07;;
30896;SDS011;64229;52.246;21.054;2024-03-25T03:10:12;32.45;;;13.20;;
30896;SDS011;64229;52.246;21.054;2024-03-25T03:12:38;28.17;;;12.95;;
30896;SDS011;64229;52.246;21.054;2024-03-25T03:15:03;29.48;;;14.57;;
30896;SDS011;64229;52.246;21.054;2024-03-25T03:17:29;31.38;;;13.25;;
30896;SDS011;64229;52.246;21.054;2024-03-25T03:19:54;29.15;;;13.48;;
30896;SDS011;64229;52.246;21.054;2024-03-25T03:22:19;28.67;;;13.07;;
30896;SDS011;64229;52.246;21.054;2024-03-25T03:24:45;31.95;;;13.63;;
30896;SDS011;64229;52.246;21.054;2024-03-25T03:27:10;29.73;;;13.05;;
30896;SDS011;64229;52.246;21.054;2024-03-25T03:29:35;32.30;;;12.75;;
30896;SDS011;64229;52.246;21.054;2024-03-25T03:32:00;29.85;;;13.23;;
30896;SDS011;64229;52.246;21.054;2024-03-25T03:34:26;29.83;;;13.33;;
30896;SDS011;64229;52.246;21.054;2024-03-25T03:36:51;27.85;;;13.02;;
30896;SDS011;64229;52.246;21.054;2024-03-25T03:39:16;31.50;;;12.95;;
30896;SDS011;64229;52.246;21.054;2024-03-25T03:41:42;26.63;;;12.90;;
30896;SDS011;64229;52.246;21.054;2024-03-25T03:44:07;32.63;;;13.60;;
30896;SDS011;64229;52.246;21.054;2024-03-25T03:46:34;27.40;;;13.15;;
30896;SDS011;64229;52.246;21.054;2024-03-25T03:48:59;27.95;;;13.48;;
30896;SDS011;64229;52.246;21.054;2024-03-25T03:51:24;26.08;;;13.60;;
30896;SDS011;64229;52.246;21.054;2024-03-25T03:53:50;27.02;;;12.90;;
30896;SDS011;64229;52.246;21.054;2024-03-25T03:56:15;31.47;;;13.53;;
30896;SDS011;64229;52.246;21.054;2024-03-25T03:58:41;28.90;;;12.77;;
30896;SDS011;64229;52.246;21.054;2024-03-25T04:01:13;30.08;;;12.88;;
30896;SDS011;64229;52.246;21.054;2024-03-25T04:03:42;24.10;;;12.13;;
30896;SDS011;64229;52.246;21.054;2024-03-25T04:06:11;29.55;;;13.43;;
30896;SDS011;64229;52.246;21.054;2024-03-25T04:08:40;25.27;;;12.15;;
30896;SDS011;64229;52.246;21.054;2024-03-25T04:11:05;25.58;;;12.65;;
30896;SDS011;64229;52.246;21.054;2024-03-25T04:13:34;28.80;;;13.02;;
30896;SDS011;64229;52.246;21.054;2024-03-25T04:16:00;28.00;;;12.55;;
30896;SDS011;64229;52.246;21.054;2024-03-25T04:18:28;29.23;;;12.73;;
30896;SDS011;64229;52.246;21.054;2024-03-25T04:20:53;29.50;;;13.02;;
30896;SDS011;64229;52.246;21.054;2024-03-25T04:23:19;28.13;;;12.75;;
30896;SDS011;64229;52.246;21.054;2024-03-25T04:25:44;30.58;;;12.35;;
30896;SDS011;64229;52.246;21.054;2024-03-25T04:28:09;27.67;;;13.20;;
30896;SDS011;64229;52.246;21.054;2024-03-25T04:30:35;26.77;;;12.90;;
30896;SDS011;64229;52.246;21.054;2024-03-25T04:33:01;29.92;;;13.25;;
30896;SDS011;64229;52.246;21.054;2024-03-25T04:35:26;25.70;;;12.20;;
30896;SDS011;64229;52.246;21.054;2024-03-25T04:37:52;31.95;;;13.40;;
30896;SDS011;64229;52.246;21.054;2024-03-25T04:40:17;29.75;;;12.55;;
30896;SDS011;64229;52.246;21.054;2024-03-25T04:42:44;29.63;;;13.35;;
30896;SDS011;64229;52.246;21.054;2024-03-25T04:45:10;32.85;;;12.73;;
30896;SDS011;64229;52.246;21.054;2024-03-25T04:47:35;29.15;;;12.45;;
30896;SDS011;64229;52.246;21.054;2024-03-25T04:50:00;27.13;;;11.70;;
30896;SDS011;64229;52.246;21.054;2024-03-25T04:52:25;32.20;;;13.30;;
30896;SDS011;64229;52.246;21.054;2024-03-25T04:54:51;32.67;;;15.18;;
30896;SDS011;64229;52.246;21.054;2024-03-25T04:57:16;37.50;;;17.95;;
30896;SDS011;64229;52.246;21.054;2024-03-25T04:59:42;43.10;;;22.20;;
30896;SDS011;64229;52.246;21.054;2024-03-25T05:02:07;43.42;;;23.50;;
30896;SDS011;64229;52.246;21.054;2024-03-25T05:04:33;48.38;;;27.35;;
30896;SDS011;64229;52.246;21.054;2024-03-25T05:06:58;56.88;;;27.10;;
30896;SDS011;64229;52.246;21.054;2024-03-25T05:09:24;51.08;;;26.83;;
30896;SDS011;64229;52.246;21.054;2024-03-25T05:11:49;50.80;;;28.00;;
30896;SDS011;64229;52.246;21.054;2024-03-25T05:14:14;53.25;;;27.00;;
30896;SDS011;64229;52.246;21.054;2024-03-25T05:16:40;52.40;;;24.67;;
30896;SDS011;64229;52.246;21.054;2024-03-25T05:19:05;48.38;;;24.50;;
30896;SDS011;64229;52.246;21.054;2024-03-25T05:21:31;46.95;;;21.05;;
30896;SDS011;64229;52.246;21.054;2024-03-25T05:23:56;40.17;;;18.73;;
30896;SDS011;64229;52.246;21.054;2024-03-25T05:26:21;42.25;;;19.75;;
30896;SDS011;64229;52.246;21.054;2024-03-25T05:28:51;34.17;;;15.98;;
30896;SDS011;64229;52.246;21.054;2024-03-25T05:31:17;32.42;;;14.00;;
30896;SDS011;64229;52.246;21.054;2024-03-25T05:33:43;35.42;;;13.02;;
30896;SDS011;64229;52.246;21.054;2024-03-25T05:36:08;28.00;;;13.27;;
30896;SDS011;64229;52.246;21.054;2024-03-25T05:38:33;57.20;;;21.67;;
30896;SDS011;64229;52.246;21.054;2024-03-25T05:40:58;30.58;;;13.25;;
30896;SDS011;64229;52.246;21.054;2024-03-25T05:43:24;29.42;;;12.27;;
30896;SDS011;64229;52.246;21.054;2024-03-25T05:45:55;30.93;;;12.07;;
30896;SDS011;64229;52.246;21.054;2024-03-25T05:48:22;24.45;;;11.13;;
30896;SDS011;64229;52.246;21.054;2024-03-25T05:53:25;25.73;;;12.05;;
30896;SDS011;64229;52.246;21.054;2024-03-25T05:55:51;25.70;;;11.60;;
30896;SDS011;64229;52.246;21.054;2024-03-25T05:58:16;26.10;;;12.05;;
30896;SDS011;64229;52.246;21.054;2024-03-25T06:00:42;28.33;;;11.77;;
30896;SDS011;64229;52.246;21.054;2024-03-25T06:03:07;30.17;;;11.88;;
30896;SDS011;64229;52.246;21.054;2024-03-25T06:05:32;25.33;;;11.23;;
30896;SDS011;64229;52.246;21.054;2024-03-25T06:07:57;23.98;;;10.73;;
30896;SDS011;64229;52.246;21.054;2024-03-25T06:10:23;24.90;;;11.30;;
30896;SDS011;64229;52.246;21.054;2024-03-25T06:12:48;34.53;;;16.30;;
30896;SDS011;64229;52.246;21.054;2024-03-25T06:15:13;51.47;;;21.23;;
30896;SDS011;64229;52.246;21.054;2024-03-25T06:17:38;31.98;;;13.25;;
30896;SDS011;64229;52.246;21.054;2024-03-25T06:20:04;24.17;;;10.95;;
30896;SDS011;64229;52.246;21.054;2024-03-25T06:22:30;27.58;;;12.32;;
30896;SDS011;64229;52.246;21.054;2024-03-25T06:24:55;20.20;;;9.43;;
30896;SDS011;64229;52.246;21.054;2024-03-25T06:27:20;21.43;;;10.53;;
30896;SDS011;64229;52.246;21.054;2024-03-25T06:29:46;23.23;;;9.70;;
30896;SDS011;64229;52.246;21.054;2024-03-25T06:32:11;19.73;;;9.43;;
30896;SDS011;64229;52.246;21.054;2024-03-25T06:34:55;21.35;;;10.10;;
30896;SDS011;64229;52.246;21.054;2024-03-25T06:37:24;21.92;;;9.50;;
30896;SDS011;64229;52.246;21.054;2024-03-25T06:39:50;21.30;;;9.48;;
30896;SDS011;64229;52.246;21.054;2024-03-25T06:42:15;18.70;;;7.90;;
30896;SDS011;64229;52.246;21.054;2024-03-25T06:44:41;16.73;;;8.18;;
30896;SDS011;64229;52.246;21.054;2024-03-25T06:47:08;18.92;;;8.00;;
30896;SDS011;64229;52.246;21.054;2024-03-25T06:49:39;18.17;;;7.88;;
30896;SDS011;64229;52.246;21.054;2024-03-25T06:52:20;15.43;;;7.57;;
30896;SDS011;64229;52.246;21.054;2024-03-25T06:54:46;17.25;;;7.55;;
30896;SDS011;64229;52.246;21.054;2024-03-25T06:57:11;14.10;;;7.18;;
30896;SDS011;64229;52.246;21.054;2024-03-25T06:59:36;15.82;;;7.57;;
30896;SDS011;64229;52.246;21.054;2024-03-25T07:02:02;17.83;;;8.30;;
30896;SDS011;64229;52.246;21.054;2024-03-25T07:04:27;17.00;;;8.32;;
30896;SDS011;64229;52.246;21.054;2024-03-25T07:06:53;20.73;;;8.23;;
30896;SDS011;64229;52.246;21.054;2024-03-25T07:09:18;17.90;;;8.20;;
30896;SDS011;64229;52.246;21.054;2024-03-25T07:11:43;17.65;;;7.80;;
30896;SDS011;64229;52.246;21.054;2024-03-25T07:14:11;18.83;;;8.65;;
30896;SDS011;64229;52.246;21.054;2024-03-25T07:16:37;15.45;;;7.82;;
30896;SDS011;64229;52.246;21.054;2024-03-25T07:19:02;34.27;;;16.50;;
30896;SDS011;64229;52.246;21.054;2024-03-25T07:21:27;23.77;;;8.95;;
30896;SDS011;64229;52.246;21.054;2024-03-25T07:23:53;17.75;;;8.10;;
30896;SDS011;64229;52.246;21.054;2024-03-25T07:26:18;15.13;;;7.47;;
30896;SDS011;64229;52.246;21.054;2024-03-25T07:28:43;20.23;;;8.10;;
30896;SDS011;64229;52.246;21.054;2024-03-25T07:31:08;18.13;;;8.27;;
30896;SDS011;64229;52.246;21.054;2024-03-25T07:33:34;24.03;;;8.70;;
30896;SDS011;64229;52.246;21.054;2024-03-25T07:35:59;17.65;;;8.70;;
30896;SDS011;64229;52.246;21.054;2024-03-25T07:38:24;16.47;;;8.13;;
30896;SDS011;64229;52.246;21.054;2024-03-25T07:40:49;18.40;;;9.02;;
30896;SDS011;64229;52.246;21.054;2024-03-25T07:43:15;18.53;;;8.57;;
30896;SDS011;64229;52.246;21.054;2024-03-25T07:45:40;16.73;;;7.80;;
30896;SDS011;64229;52.246;21.054;2024-03-25T07:48:06;17.95;;;7.70;;
30896;SDS011;64229;52.246;21.054;2024-03-25T07:50:33;15.13;;;7.85;;
30896;SDS011;64229;52.246;21.054;2024-03-25T07:52:58;16.45;;;8.75;;
30896;SDS011;64229;52.246;21.054;2024-03-25T07:55:23;16.50;;;7.47;;
30896;SDS011;64229;52.246;21.054;2024-03-25T07:57:48;16.50;;;8.03;;
30896;SDS011;64229;52.246;21.054;2024-03-25T08:00:14;13.77;;;6.87;;
30896;SDS011;64229;52.246;21.054;2024-03-25T08:02:39;17.45;;;7.45;;
30896;SDS011;64229;52.246;21.054;2024-03-25T08:05:04;19.17;;;6.93;;
30896;SDS011;64229;52.246;21.054;2024-03-25T08:07:30;17.80;;;8.13;;
30896;SDS011;64229;52.246;21.054;2024-03-25T08:09:55;14.60;;;7.33;;
30896;SDS011;64229;52.246;21.054;2024-03-25T08:12:20;20.63;;;7.60;;
30896;SDS011;64229;52.246;21.054;2024-03-25T08:14:46;13.40;;;7.90;;
30896;SDS011;64229;52.246;21.054;2024-03-25T08:17:11;19.27;;;7.90;;
30896;SDS011;64229;52.246;21.054;2024-03-25T08:19:36;18.85;;;8.70;;
30896;SDS011;64229;52.246;21.054;2024-03-25T08:22:01;13.87;;;7.40;;
30896;SDS011;64229;52.246;21.054;2024-03-25T08:24:27;18.00;;;7.28;;
30896;SDS011;64229;52.246;21.054;2024-03-25T08:26:52;11.13;;;6.43;;
30896;SDS011;64229;52.246;21.054;2024-03-25T08:29:17;12.43;;;6.60;;
30896;SDS011;64229;52.246;21.054;2024-03-25T08:31:43;11.95;;;6.53;;
30896;SDS011;64229;52.246;21.054;2024-03-25T08:34:08;10.30;;;5.60;;
30896;SDS011;64229;52.246;21.054;2024-03-25T08:36:33;14.07;;;5.67;;
30896;SDS011;64229;52.246;21.054;2024-03-25T08:38:58;11.33;;;5.10;;
30896;SDS011;64229;52.246;21.054;2024-03-25T08:41:24;13.20;;;5.05;;
30896;SDS011;64229;52.246;21.054;2024-03-25T08:43:49;9.88;;;5.00;;
30896;SDS011;64229;52.246;21.054;2024-03-25T08:46:14;11.20;;;5.33;;
30896;SDS011;64229;52.246;21.054;2024-03-25T08:48:39;8.73;;;4.73;;
30896;SDS011;64229;52.246;21.054;2024-03-25T08:51:05;9.40;;;4.40;;
30896;SDS011;64229;52.246;21.054;2024-03-25T08:53:30;8.73;;;4.40;;
30896;SDS011;64229;52.246;21.054;2024-03-25T08:55:55;7.17;;;4.60;;
30896;SDS011;64229;52.246;21.054;2024-03-25T08:58:20;11.88;;;4.85;;
30896;SDS011;64229;52.246;21.054;2024-03-25T09:00:45;9.07;;;5.07;;
30896;SDS011;64229;52.246;21.054;2024-03-25T09:03:11;10.05;;;5.13;;
30896;SDS011;64229;52.246;21.054;2024-03-25T09:05:36;8.17;;;4.83;;
30896;SDS011;64229;52.246;21.054;2024-03-25T09:08:05;10.68;;;5.20;;
30896;SDS011;64229;52.246;21.054;2024-03-25T09:10:31;11.45;;;5.20;;
30896;SDS011;64229;52.246;21.054;2024-03-25T09:13:15;10.05;;;5.57;;
30896;SDS011;64229;52.246;21.054;2024-03-25T09:15:41;9.60;;;5.20;;
30896;SDS011;64229;52.246;21.054;2024-03-25T09:18:06;8.50;;;5.55;;
30896;SDS011;64229;52.246;21.054;2024-03-25T09:20:31;9.23;;;4.80;;
30896;SDS011;64229;52.246;21.054;2024-03-25T09:22:56;9.45;;;4.65;;
30896;SDS011;64229;52.246;21.054;2024-03-25T09:25:22;8.23;;;4.63;;
30896;SDS011;64229;52.246;21.054;2024-03-25T09:27:48;10.27;;;4.18;;
30896;SDS011;64229;52.246;21.054;2024-03-25T09:30:14;12.80;;;4.40;;
30896;SDS011;64229;52.246;21.054;2024-03-25T09:32:40;7.18;;;3.67;;
30896;SDS011;64229;52.246;21.054;2024-03-25T09:35:06;7.85;;;3.85;;
30896;SDS011;64229;52.246;21.054;2024-03-25T09:37:31;9.23;;;3.75;;
30896;SDS011;64229;52.246;21.054;2024-03-25T09:39:57;8.77;;;4.72;;
30896;SDS011;64229;52.246;21.054;2024-03-25T09:42:26;7.10;;;4.15;;
30896;SDS011;64229;52.246;21.054;2024-03-25T09:44:55;5.55;;;3.15;;
30896;SDS011;64229;52.246;21.054;2024-03-25T09:47:21;7.03;;;3.50;;
30896;SDS011;64229;52.246;21.054;2024-03-25T09:49:48;5.50;;;3.20;;
30896;SDS011;64229;52.246;21.054;2024-03-25T09:52:14;6.82;;;3.28;;
30896;SDS011;64229;52.246;21.054;2024-03-25T09:54:40;8.25;;;3.15;;
30896;SDS011;64229;52.246;21.054;2024-03-25T09:57:06;6.60;;;3.50;;
30896;SDS011;64229;52.246;21.054;2024-03-25T09:59:32;5.15;;;2.83;;
30896;SDS011;64229;52.246;21.054;2024-03-25T10:01:58;7.38;;;2.97;;
30896;SDS011;64229;52.246;21.054;2024-03-25T10:04:24;6.80;;;3.30;;
30896;SDS011;64229;52.246;21.054;2024-03-25T10:06:50;5.90;;;3.28;;
30896;SDS011;64229;52.246;21.054;2024-03-25T10:09:18;7.70;;;3.33;;
30896;SDS011;64229;52.246;21.054;2024-03-25T10:11:46;7.65;;;3.15;;
30896;SDS011;64229;52.246;21.054;2024-03-25T10:14:12;7.72;;;3.28;;
30896;SDS011;64229;52.246;21.054;2024-03-25T10:16:37;6.60;;;3.40;;
30896;SDS011;64229;52.246;21.054;2024-03-25T10:19:02;8.73;;;3.33;;
30896;SDS011;64229;52.246;21.054;2024-03-25T10:21:28;5.00;;;2.80;;
30896;SDS011;64229;52.246;21.054;2024-03-25T10:23:53;7.30;;;3.13;;
30896;SDS011;64229;52.246;21.054;2024-03-25T10:26:26;62.28;;;27.60;;
30896;SDS011;64229;52.246;21.054;2024-03-25T10:28:59;10.80;;;4.22;;
30896;SDS011;64229;52.246;21.054;2024-03-25T10:31:29;9.15;;;2.90;;
30896;SDS011;64229;52.246;21.054;2024-03-25T10:33:54;5.80;;;3.53;;
30896;SDS011;64229;52.246;21.054;2024-03-25T10:36:20;4.83;;;3.10;;
30896;SDS011;64229;52.246;21.054;2024-03-25T10:38:48;6.78;;;3.10;;
30896;SDS011;64229;52.246;21.054;2024-03-25T10:41:16;6.28;;;2.83;;
30896;SDS011;64229;52.246;21.054;2024-03-25T10:43:43;6.97;;;3.08;;
30896;SDS011;64229;52.246;21.054;2024-03-25T10:46:11;15.48;;;7.03;;
30896;SDS011;64229;52.246;21.054;2024-03-25T10:48:40;5.60;;;3.50;;
30896;SDS011;64229;52.246;21.054;2024-03-25T10:51:09;9.20;;;3.78;;
30896;SDS011;64229;52.246;21.054;2024-03-25T10:53:38;5.38;;;2.90;;
30896;SDS011;64229;52.246;21.054;2024-03-25T10:56:04;4.63;;;3.08;;
30896;SDS011;64229;52.246;21.054;2024-03-25T10:58:30;4.90;;;2.85;;
30896;SDS011;64229;52.246;21.054;2024-03-25T11:00:57;6.25;;;3.03;;
30896;SDS011;64229;52.246;21.054;2024-03-25T11:03:24;7.05;;;2.90;;
30896;SDS011;64229;52.246;21.054;2024-03-25T11:05:50;7.07;;;2.67;;
30896;SDS011;64229;52.246;21.054;2024-03-25T11:08:16;6.05;;;2.85;;
30896;SDS011;64229;52.246;21.054;2024-03-25T11:10:45;8.02;;;2.72;;
30896;SDS011;64229;52.246;21.054;2024-03-25T11:13:16;6.68;;;3.20;;
30896;SDS011;64229;52.246;21.054;2024-03-25T11:15:44;7.07;;;3.35;;
30896;SDS011;64229;52.246;21.054;2024-03-25T11:18:14;5.88;;;3.17;;
30896;SDS011;64229;52.246;21.054;2024-03-25T11:20:40;6.25;;;3.05;;
30896;SDS011;64229;52.246;21.054;2024-03-25T11:23:10;3.90;;;2.67;;
30896;SDS011;64229;52.246;21.054;2024-03-25T11:25:38;8.40;;;3.10;;
30896;SDS011;64229;52.246;21.054;2024-03-25T11:28:05;4.70;;;2.88;;
30896;SDS011;64229;52.246;21.054;2024-03-25T11:30:31;5.75;;;3.08;;
30896;SDS011;64229;52.246;21.054;2024-03-25T11:32:57;6.70;;;3.10;;
30896;SDS011;64229;52.246;21.054;2024-03-25T11:35:25;6.05;;;3.15;;
30896;SDS011;64229;52.246;21.054;2024-03-25T11:37:51;7.32;;;2.83;;
30896;SDS011;64229;52.246;21.054;2024-03-25T11:40:17;6.88;;;2.60;;
30896;SDS011;64229;52.246;21.054;2024-03-25T11:42:44;6.20;;;2.63;;
30896;SDS011;64229;52.246;21.054;2024-03-25T11:45:17;8.10;;;3.38;;
30896;SDS011;64229;52.246;21.054;2024-03-25T11:47:44;5.70;;;2.95;;
30896;SDS011;64229;52.246;21.054;2024-03-25T11:50:11;8.35;;;2.70;;
30896;SDS011;64229;52.246;21.054;2024-03-25T11:52:38;5.32;;;2.90;;
30896;SDS011;64229;52.246;21.054;2024-03-25T11:55:03;5.70;;;2.67;;
30896;SDS011;64229;52.246;21.054;2024-03-25T11:57:29;5.13;;;2.58;;
30896;SDS011;64229;52.246;21.054;2024-03-25T11:59:54;4.18;;;2.78;;
30896;SDS011;64229;52.246;21.054;2024-03-25T12:02:20;5.32;;;2.70;;
30896;SDS011;64229;52.246;21.054;2024-03-25T12:04:47;5.28;;;3.08;;
30896;SDS011;64229;52.246;21.054;2024-03-25T12:07:13;4.82;;;2.88;;
30896;SDS011;64229;52.246;21.054;2024-03-25T12:09:41;5.82;;;3.08;;
30896;SDS011;64229;52.246;21.054;2024-03-25T12:12:25;6.60;;;3.23;;
30896;SDS011;64229;52.246;21.054;2024-03-25T12:14:51;8.02;;;3.10;;
30896;SDS011;64229;52.246;21.054;2024-03-25T12:17:17;155.48;;;68.30;;
30896;SDS011;64229;52.246;21.054;2024-03-25T12:19:44;12.23;;;5.45;;
30896;SDS011;64229;52.246;21.054;2024-03-25T12:22:10;7.68;;;3.67;;
30896;SDS011;64229;52.246;21.054;2024-03-25T12:24:35;6.53;;;3.35;;
30896;SDS011;64229;52.246;21.054;2024-03-25T12:27:01;4.00;;;2.53;;
30896;SDS011;64229;52.246;21.054;2024-03-25T12:29:26;6.38;;;2.55;;
30896;SDS011;64229;52.246;21.054;2024-03-25T12:31:57;10.30;;;3.20;;
30896;SDS011;64229;52.246;21.054;2024-03-25T12:34:25;5.55;;;2.80;;
30896;SDS011;64229;52.246;21.054;2024-03-25T12:36:51;6.50;;;2.92;;
30896;SDS011;64229;52.246;21.054;2024-03-25T12:39:17;4.43;;;2.40;;
30896;SDS011;64229;52.246;21.054;2024-03-25T12:41:43;5.65;;;2.88;;
30896;SDS011;64229;52.246;21.054;2024-03-25T12:44:11;5.25;;;2.65;;
30896;SDS011;64229;52.246;21.054;2024-03-25T12:46:37;7.50;;;3.10;;
30896;SDS011;64229;52.246;21.054;2024-03-25T12:49:03;5.90;;;2.83;;
30896;SDS011;64229;52.246;21.054;2024-03-25T12:51:29;5.63;;;2.72;;
30896;SDS011;64229;52.246;21.054;2024-03-25T12:53:54;5.72;;;2.90;;
30896;SDS011;64229;52.246;21.054;2024-03-25T12:56:19;5.57;;;3.00;;
30896;SDS011;64229;52.246;21.054;2024-03-25T12:58:45;5.33;;;3.40;;
30896;SDS011;64229;52.246;21.054;2024-03-25T13:01:10;8.43;;;3.30;;
30896;SDS011;64229;52.246;21.054;2024-03-25T13:03:35;4.65;;;2.80;;
30896;SDS011;64229;52.246;21.054;2024-03-25T13:06:00;4.47;;;2.60;;
30896;SDS011;64229;52.246;21.054;2024-03-25T13:08:26;6.10;;;2.50;;
30896;SDS011;64229;52.246;21.054;2024-03-25T13:10:51;6.78;;;2.33;;
30896;SDS011;64229;52.246;21.054;2024-03-25T13:13:16;7.05;;;3.95;;
30896;SDS011;64229;52.246;21.054;2024-03-25T13:15:42;7.70;;;4.45;;
30896;SDS011;64229;52.246;21.054;2024-03-25T13:18:08;8.07;;;4.65;;
30896;SDS011;64229;52.246;21.054;2024-03-25T13:20:33;9.23;;;5.10;;
30896;SDS011;64229;52.246;21.054;2024-03-25T13:22:59;9.80;;;5.60;;
30896;SDS011;64229;52.246;21.054;2024-03-25T13:25:25;10.73;;;5.68;;
30896;SDS011;64229;52.246;21.054;2024-03-25T13:27:52;9.80;;;5.45;;
30896;SDS011;64229;52.246;21.054;2024-03-25T13:30:17;15.43;;;5.93;;
30896;SDS011;64229;52.246;21.054;2024-03-25T13:32:43;18.60;;;8.38;;
30896;SDS011;64229;52.246;21.054;2024-03-25T13:35:08;17.15;;;7.65;;
30896;SDS011;64229;52.246;21.054;2024-03-25T13:37:33;9.85;;;5.55;;
30896;SDS011;64229;52.246;21.054;2024-03-25T13:39:58;14.27;;;5.37;;
30896;SDS011;64229;52.246;21.054;2024-03-25T13:42:24;8.45;;;5.15;;
30896;SDS011;64229;52.246;21.054;2024-03-25T13:44:49;9.00;;;4.85;;
30896;SDS011;64229;52.246;21.054;2024-03-25T13:47:14;9.07;;;4.97;;
30896;SDS011;64229;52.246;21.054;2024-03-25T13:49:40;7.10;;;4.50;;
30896;SDS011;64229;52.246;21.054;2024-03-25T13:52:05;7.20;;;5.23;;
30896;SDS011;64229;52.246;21.054;2024-03-25T13:54:30;10.13;;;4.80;;
30896;SDS011;64229;52.246;21.054;2024-03-25T13:56:56;8.98;;;5.18;;
30896;SDS011;64229;52.246;21.054;2024-03-25T13:59:22;8.02;;;5.07;;
30896;SDS011;64229;52.246;21.054;2024-03-25T14:01:47;8.82;;;5.13;;
30896;SDS011;64229;52.246;21.054;2024-03-25T14:04:12;8.95;;;5.47;;
30896;SDS011;64229;52.246;21.054;2024-03-25T14:06:38;9.27;;;5.25;;
30896;SDS011;64229;52.246;21.054;2024-03-25T14:09:05;8.75;;;5.03;;
30896;SDS011;64229;52.246;21.054;2024-03-25T14:11:33;8.45;;;5.22;;
30896;SDS011;64229;52.246;21.054;2024-03-25T14:13:59;10.93;;;6.13;;
30896;SDS011;64229;52.246;21.054;2024-03-25T14:16:25;23.35;;;10.10;;